sensor_id;sensor_type;location;lat;lon;timestamp;temperature;humidity
27848;DHT22;15212;48.830;8.730;2022-08-18T00:02:18;18.30;99.90
27848;DHT22;15212;48.830;8.730;2022-08-18T00:04:48;18.30;99.90
27848;DHT22;15212;48.830;8.730;2022-08-18T00:07:24;18.30;99.90
27848;DHT22;15212;48.830;8.730;2022-08-18T00:09:50;18.30;99.90
27848;DHT22;15212;48.830;8.730;2022-08-18T00:14:58;18.20;99.90
27848;DHT22;15212;48.830;8.730;2022-08-18T00:17:28;18.20;99.90
27848;DHT22;15212;48.830;8.730;2022-08-18T00:19:57;18.10;99.90
27848;DHT22;15212;48.830;8.730;2022-08-18T00:22:26;18.00;99.90
27848;DHT22;15212;48.830;8.730;2022-08-18T00:24:55;18.00;99.90
27848;DHT22;15212;48.830;8.730;2022-08-18T00:27:29;17.90;99.90
27848;DHT22;15212;48.830;8.730;2022-08-18T00:30:01;17.90;99.90
27848;DHT22;15212;48.830;8.730;2022-08-18T00:32:34;17.80;99.90
27848;DHT22;15212;48.830;8.730;2022-08-18T00:35:25;17.80;99.90
27848;DHT22;15212;48.830;8.730;2022-08-18T00:37:56;17.80;99.90
27848;DHT22;15212;48.830;8.730;2022-08-18T00:40:29;17.70;99.90
27848;DHT22;15212;48.830;8.730;2022-08-18T00:43:01;17.70;99.90
27848;DHT22;15212;48.830;8.730;2022-08-18T00:45:34;17.60;99.90
27848;DHT22;15212;48.830;8.730;2022-08-18T00:48:05;17.50;99.90
27848;DHT22;15212;48.830;8.730;2022-08-18T00:53:40;17.50;99.90
27848;DHT22;15212;48.830;8.730;2022-08-18T00:56:09;17.50;99.90
27848;DHT22;15212;48.830;8.730;2022-08-18T00:59:09;17.50;99.90
27848;DHT22;15212;48.830;8.730;2022-08-18T01:01:45;17.50;99.90
27848;DHT22;15212;48.830;8.730;2022-08-18T01:04:19;17.50;99.90
27848;DHT22;15212;48.830;8.730;2022-08-18T01:06:57;17.50;99.90
27848;DHT22;15212;48.830;8.730;2022-08-18T01:09:27;17.50;99.90
27848;DHT22;15212;48.830;8.730;2022-08-18T01:11:56;17.50;99.90
27848;DHT22;15212;48.830;8.730;2022-08-18T01:14:24;17.50;99.90
27848;DHT22;15212;48.830;8.730;2022-08-18T01:16:53;17.50;99.90
27848;DHT22;15212;48.830;8.730;2022-08-18T01:19:39;17.50;99.90
27848;DHT22;15212;48.830;8.730;2022-08-18T01:25:24;17.50;99.90
27848;DHT22;15212;48.830;8.730;2022-08-18T01:28:10;17.50;99.90
27848;DHT22;15212;48.830;8.730;2022-08-18T01:30:52;17.50;99.90
27848;DHT22;15212;48.830;8.730;2022-08-18T01:33:29;17.50;99.90
27848;DHT22;15212;48.830;8.730;2022-08-18T01:36:01;17.50;99.90
27848;DHT22;15212;48.830;8.730;2022-08-18T01:38:33;17.50;99.90
27848;DHT22;15212;48.830;8.730;2022-08-18T01:41:01;17.50;99.90
27848;DHT22;15212;48.830;8.730;2022-08-18T01:43:30;17.50;99.90
27848;DHT22;15212;48.830;8.730;2022-08-18T01:46:00;17.50;99.90
27848;DHT22;15212;48.830;8.730;2022-08-18T01:48:30;17.40;99.90
27848;DHT22;15212;48.830;8.730;2022-08-18T01:51:06;17.40;99.90
27848;DHT22;15212;48.830;8.730;2022-08-18T01:53:31;17.40;99.90
27848;DHT22;15212;48.830;8.730;2022-08-18T01:56:00;17.40;99.90
27848;DHT22;15212;48.830;8.730;2022-08-18T01:58:34;17.40;99.90
27848;DHT22;15212;48.830;8.730;2022-08-18T02:01:04;17.40;99.90
27848;DHT22;15212;48.830;8.730;2022-08-18T02:03:36;17.40;99.90
27848;DHT22;15212;48.830;8.730;2022-08-18T02:06:08;17.50;99.90
27848;DHT22;15212;48.830;8.730;2022-08-18T02:08:38;17.50;99.90
27848;DHT22;15212;48.830;8.730;2022-08-18T02:11:07;17.50;99.90
27848;DHT22;15212;48.830;8.730;2022-08-18T02:13:36;17.50;99.90
27848;DHT22;15212;48.830;8.730;2022-08-18T02:16:06;17.60;99.90
27848;DHT22;15212;48.830;8.730;2022-08-18T02:18:36;17.60;99.90
27848;DHT22;15212;48.830;8.730;2022-08-18T02:21:12;17.60;99.90
27848;DHT22;15212;48.830;8.730;2022-08-18T02:23:39;17.70;99.90
27848;DHT22;15212;48.830;8.730;2022-08-18T02:26:12;17.70;99.90
27848;DHT22;15212;48.830;8.730;2022-08-18T02:28:42;17.70;99.90
27848;DHT22;15212;48.830;8.730;2022-08-18T02:31:13;17.70;99.90
27848;DHT22;15212;48.830;8.730;2022-08-18T02:33:43;17.70;99.90
27848;DHT22;15212;48.830;8.730;2022-08-18T02:36:12;17.70;99.90
27848;DHT22;15212;48.830;8.730;2022-08-18T02:38:42;17.70;99.90
27848;DHT22;15212;48.830;8.730;2022-08-18T02:41:11;17.70;99.90
27848;DHT22;15212;48.830;8.730;2022-08-18T02:43:41;17.60;99.90
27848;DHT22;15212;48.830;8.730;2022-08-18T02:46:09;17.60;99.90
27848;DHT22;15212;48.830;8.730;2022-08-18T02:48:38;17.70;99.90
27848;DHT22;15212;48.830;8.730;2022-08-18T02:51:08;17.60;99.90
27848;DHT22;15212;48.830;8.730;2022-08-18T02:53:40;17.70;99.90
27848;DHT22;15212;48.830;8.730;2022-08-18T02:56:12;17.70;99.90
27848;DHT22;15212;48.830;8.730;2022-08-18T02:59:00;17.70;99.90
27848;DHT22;15212;48.830;8.730;2022-08-18T03:01:36;17.70;99.90
27848;DHT22;15212;48.830;8.730;2022-08-18T03:04:08;17.70;99.90
27848;DHT22;15212;48.830;8.730;2022-08-18T03:06:38;17.70;99.90
27848;DHT22;15212;48.830;8.730;2022-08-18T03:09:08;17.70;99.90
27848;DHT22;15212;48.830;8.730;2022-08-18T03:11:37;17.60;99.90
27848;DHT22;15212;48.830;8.730;2022-08-18T03:14:06;17.60;99.90
27848;DHT22;15212;48.830;8.730;2022-08-18T03:16:39;17.60;99.90
27848;DHT22;15212;48.830;8.730;2022-08-18T03:19:10;17.60;99.90
27848;DHT22;15212;48.830;8.730;2022-08-18T03:21:42;17.60;99.90
27848;DHT22;15212;48.830;8.730;2022-08-18T03:24:12;17.60;99.90
27848;DHT22;15212;48.830;8.730;2022-08-18T03:26:43;17.60;99.90
27848;DHT22;15212;48.830;8.730;2022-08-18T03:29:13;17.60;99.90
27848;DHT22;15212;48.830;8.730;2022-08-18T03:31:43;17.60;99.90
27848;DHT22;15212;48.830;8.730;2022-08-18T03:34:14;17.60;99.90
27848;DHT22;15212;48.830;8.730;2022-08-18T03:36:46;17.60;99.90
27848;DHT22;15212;48.830;8.730;2022-08-18T03:39:17;17.60;99.90
27848;DHT22;15212;48.830;8.730;2022-08-18T03:41:49;17.60;99.90
27848;DHT22;15212;48.830;8.730;2022-08-18T03:44:22;17.60;99.90
27848;DHT22;15212;48.830;8.730;2022-08-18T03:46:51;17.70;99.90
27848;DHT22;15212;48.830;8.730;2022-08-18T03:49:19;17.70;99.90
27848;DHT22;15212;48.830;8.730;2022-08-18T03:51:48;17.70;99.90
27848;DHT22;15212;48.830;8.730;2022-08-18T03:54:17;17.80;99.90
27848;DHT22;15212;48.830;8.730;2022-08-18T03:56:47;17.80;99.90
27848;DHT22;15212;48.830;8.730;2022-08-18T03:59:19;17.80;99.90
27848;DHT22;15212;48.830;8.730;2022-08-18T04:01:50;17.80;99.90
27848;DHT22;15212;48.830;8.730;2022-08-18T04:04:23;17.70;99.90
27848;DHT22;15212;48.830;8.730;2022-08-18T04:06:56;17.60;99.90
27848;DHT22;15212;48.830;8.730;2022-08-18T04:09:28;17.60;99.90
27848;DHT22;15212;48.830;8.730;2022-08-18T04:12:01;17.50;99.90
27848;DHT22;15212;48.830;8.730;2022-08-18T04:14:34;17.50;99.90
27848;DHT22;15212;48.830;8.730;2022-08-18T04:17:03;17.40;99.90
27848;DHT22;15212;48.830;8.730;2022-08-18T04:19:32;17.40;99.90
27848;DHT22;15212;48.830;8.730;2022-08-18T04:22:01;17.40;99.90
27848;DHT22;15212;48.830;8.730;2022-08-18T04:24:31;17.40;99.90
27848;DHT22;15212;48.830;8.730;2022-08-18T04:27:02;17.40;99.90
27848;DHT22;15212;48.830;8.730;2022-08-18T04:29:31;17.40;99.90
27848;DHT22;15212;48.830;8.730;2022-08-18T04:32:01;17.40;99.90
27848;DHT22;15212;48.830;8.730;2022-08-18T04:34:31;17.40;99.90
27848;DHT22;15212;48.830;8.730;2022-08-18T04:37:00;17.50;99.90
27848;DHT22;15212;48.830;8.730;2022-08-18T04:39:30;17.50;99.90
27848;DHT22;15212;48.830;8.730;2022-08-18T04:41:58;17.50;99.90
27848;DHT22;15212;48.830;8.730;2022-08-18T04:44:28;17.50;99.90
27848;DHT22;15212;48.830;8.730;2022-08-18T04:46:57;17.50;99.90
27848;DHT22;15212;48.830;8.730;2022-08-18T04:49:27;17.60;99.90
27848;DHT22;15212;48.830;8.730;2022-08-18T04:51:57;17.50;99.90
27848;DHT22;15212;48.830;8.730;2022-08-18T04:54:44;17.50;99.90
27848;DHT22;15212;48.830;8.730;2022-08-18T04:57:17;17.50;99.90
27848;DHT22;15212;48.830;8.730;2022-08-18T04:59:48;17.50;99.90
27848;DHT22;15212;48.830;8.730;2022-08-18T05:02:19;17.50;99.90
27848;DHT22;15212;48.830;8.730;2022-08-18T05:04:48;17.60;99.90
27848;DHT22;15212;48.830;8.730;2022-08-18T05:07:18;17.60;99.90
27848;DHT22;15212;48.830;8.730;2022-08-18T05:09:49;17.60;99.90
27848;DHT22;15212;48.830;8.730;2022-08-18T05:12:20;17.70;99.90
27848;DHT22;15212;48.830;8.730;2022-08-18T05:14:48;17.70;99.90
27848;DHT22;15212;48.830;8.730;2022-08-18T05:17:17;17.80;99.90
27848;DHT22;15212;48.830;8.730;2022-08-18T05:19:46;17.80;99.90
27848;DHT22;15212;48.830;8.730;2022-08-18T05:22:14;17.90;99.90
27848;DHT22;15212;48.830;8.730;2022-08-18T05:24:45;17.90;99.90
27848;DHT22;15212;48.830;8.730;2022-08-18T05:27:14;18.00;99.90
27848;DHT22;15212;48.830;8.730;2022-08-18T05:29:42;18.00;99.90
27848;DHT22;15212;48.830;8.730;2022-08-18T05:32:10;18.10;99.90
27848;DHT22;15212;48.830;8.730;2022-08-18T05:34:40;18.10;99.90
27848;DHT22;15212;48.830;8.730;2022-08-18T05:37:25;18.20;99.90
27848;DHT22;15212;48.830;8.730;2022-08-18T05:40:03;18.20;99.90
27848;DHT22;15212;48.830;8.730;2022-08-18T05:42:37;18.30;99.90
27848;DHT22;15212;48.830;8.730;2022-08-18T05:45:12;18.30;99.90
27848;DHT22;15212;48.830;8.730;2022-08-18T05:47:41;18.50;99.90
27848;DHT22;15212;48.830;8.730;2022-08-18T05:50:15;18.50;99.90
27848;DHT22;15212;48.830;8.730;2022-08-18T05:53:04;18.60;99.90
27848;DHT22;15212;48.830;8.730;2022-08-18T05:55:53;18.60;99.90
27848;DHT22;15212;48.830;8.730;2022-08-18T05:58:44;18.70;99.90
27848;DHT22;15212;48.830;8.730;2022-08-18T06:01:26;18.70;99.90
27848;DHT22;15212;48.830;8.730;2022-08-18T06:04:04;18.80;99.90
27848;DHT22;15212;48.830;8.730;2022-08-18T06:06:36;18.80;99.90
27848;DHT22;15212;48.830;8.730;2022-08-18T06:09:10;18.90;99.90
27848;DHT22;15212;48.830;8.730;2022-08-18T06:11:43;19.00;99.90
27848;DHT22;15212;48.830;8.730;2022-08-18T06:14:12;19.20;99.90
27848;DHT22;15212;48.830;8.730;2022-08-18T06:17:04;19.30;99.90
27848;DHT22;15212;48.830;8.730;2022-08-18T06:20:00;19.40;99.90
27848;DHT22;15212;48.830;8.730;2022-08-18T06:26:14;19.40;99.90
27848;DHT22;15212;48.830;8.730;2022-08-18T06:28:15;19.50;99.90
27848;DHT22;15212;48.830;8.730;2022-08-18T06:30:47;19.70;99.90
27848;DHT22;15212;48.830;8.730;2022-08-18T06:36:24;20.40;99.90
27848;DHT22;15212;48.830;8.730;2022-08-18T06:39:30;20.70;99.90
27848;DHT22;15212;48.830;8.730;2022-08-18T06:42:00;20.70;99.90
27848;DHT22;15212;48.830;8.730;2022-08-18T06:44:36;20.60;99.90
27848;DHT22;15212;48.830;8.730;2022-08-18T06:47:32;20.40;99.90
27848;DHT22;15212;48.830;8.730;2022-08-18T06:50:19;20.20;99.90
27848;DHT22;15212;48.830;8.730;2022-08-18T06:52:57;20.20;99.90
27848;DHT22;15212;48.830;8.730;2022-08-18T06:55:34;20.20;99.90
27848;DHT22;15212;48.830;8.730;2022-08-18T07:03:42;19.90;99.90
27848;DHT22;15212;48.830;8.730;2022-08-18T07:08:55;19.70;99.90
27848;DHT22;15212;48.830;8.730;2022-08-18T07:12:01;19.60;99.90
27848;DHT22;15212;48.830;8.730;2022-08-18T07:14:44;19.60;99.90
27848;DHT22;15212;48.830;8.730;2022-08-18T07:17:24;19.50;99.90
27848;DHT22;15212;48.830;8.730;2022-08-18T07:20:04;19.40;99.90
27848;DHT22;15212;48.830;8.730;2022-08-18T07:22:55;19.40;99.90
27848;DHT22;15212;48.830;8.730;2022-08-18T07:25:30;19.20;99.90
27848;DHT22;15212;48.830;8.730;2022-08-18T07:28:00;19.20;99.90
27848;DHT22;15212;48.830;8.730;2022-08-18T07:30:32;19.10;99.90
27848;DHT22;15212;48.830;8.730;2022-08-18T07:33:15;19.10;99.90
27848;DHT22;15212;48.830;8.730;2022-08-18T07:35:57;19.10;99.90
27848;DHT22;15212;48.830;8.730;2022-08-18T07:38:40;19.00;99.90
27848;DHT22;15212;48.830;8.730;2022-08-18T07:41:37;18.90;99.90
27848;DHT22;15212;48.830;8.730;2022-08-18T07:47:56;18.80;99.90
27848;DHT22;15212;48.830;8.730;2022-08-18T07:49:47;18.80;99.90
27848;DHT22;15212;48.830;8.730;2022-08-18T07:52:24;18.80;99.90
27848;DHT22;15212;48.830;8.730;2022-08-18T07:55:17;18.80;99.90
27848;DHT22;15212;48.830;8.730;2022-08-18T07:58:14;18.70;99.90
27848;DHT22;15212;48.830;8.730;2022-08-18T08:00:28;18.70;99.90
27848;DHT22;15212;48.830;8.730;2022-08-18T08:06:20;18.60;99.90
27848;DHT22;15212;48.830;8.730;2022-08-18T08:09:28;18.60;99.90
27848;DHT22;15212;48.830;8.730;2022-08-18T08:12:22;18.60;99.90
27848;DHT22;15212;48.830;8.730;2022-08-18T08:15:23;18.70;99.90
27848;DHT22;15212;48.830;8.730;2022-08-18T08:21:24;18.80;99.90
27848;DHT22;15212;48.830;8.730;2022-08-18T08:24:09;18.80;99.90
27848;DHT22;15212;48.830;8.730;2022-08-18T08:32:10;18.90;99.90
27848;DHT22;15212;48.830;8.730;2022-08-18T08:35:02;18.90;99.90
27848;DHT22;15212;48.830;8.730;2022-08-18T08:40:25;19.30;99.90
27848;DHT22;15212;48.830;8.730;2022-08-18T08:43:01;19.50;99.90
27848;DHT22;15212;48.830;8.730;2022-08-18T08:45:41;19.60;99.90
27848;DHT22;15212;48.830;8.730;2022-08-18T08:50:54;19.90;99.90
27848;DHT22;15212;48.830;8.730;2022-08-18T08:53:32;19.80;99.90
27848;DHT22;15212;48.830;8.730;2022-08-18T08:56:07;19.80;99.90
27848;DHT22;15212;48.830;8.730;2022-08-18T08:58:41;19.90;99.90
27848;DHT22;15212;48.830;8.730;2022-08-18T09:04:23;20.10;99.90
27848;DHT22;15212;48.830;8.730;2022-08-18T09:07:06;20.20;99.90
27848;DHT22;15212;48.830;8.730;2022-08-18T09:22:57;20.70;99.90
27848;DHT22;15212;48.830;8.730;2022-08-18T09:24:49;20.80;99.90
27848;DHT22;15212;48.830;8.730;2022-08-18T09:27:42;20.90;99.90
27848;DHT22;15212;48.830;8.730;2022-08-18T09:33:19;20.90;99.90
27848;DHT22;15212;48.830;8.730;2022-08-18T09:36:03;20.90;99.90
27848;DHT22;15212;48.830;8.730;2022-08-18T09:38:57;21.00;99.90
27848;DHT22;15212;48.830;8.730;2022-08-18T09:42:00;21.10;99.90
27848;DHT22;15212;48.830;8.730;2022-08-18T09:58:13;21.20;99.90
27848;DHT22;15212;48.830;8.730;2022-08-18T10:00:43;21.10;99.90
27848;DHT22;15212;48.830;8.730;2022-08-18T10:03:17;21.00;99.90
27848;DHT22;15212;48.830;8.730;2022-08-18T10:06:04;20.90;99.90
27848;DHT22;15212;48.830;8.730;2022-08-18T10:08:51;20.80;99.90
27848;DHT22;15212;48.830;8.730;2022-08-18T10:11:25;20.70;99.90
27848;DHT22;15212;48.830;8.730;2022-08-18T10:22:51;20.20;99.90
27848;DHT22;15212;48.830;8.730;2022-08-18T10:25:39;20.20;99.90
27848;DHT22;15212;48.830;8.730;2022-08-18T10:31:06;20.30;99.90
27848;DHT22;15212;48.830;8.730;2022-08-18T10:36:38;20.70;99.90
27848;DHT22;15212;48.830;8.730;2022-08-18T10:42:23;21.00;99.90
27848;DHT22;15212;48.830;8.730;2022-08-18T10:47:34;21.10;99.90
27848;DHT22;15212;48.830;8.730;2022-08-18T10:50:21;21.10;99.90
27848;DHT22;15212;48.830;8.730;2022-08-18T10:55:46;21.40;99.90
27848;DHT22;15212;48.830;8.730;2022-08-18T10:58:32;21.50;99.90
27848;DHT22;15212;48.830;8.730;2022-08-18T11:01:20;21.50;99.90
27848;DHT22;15212;48.830;8.730;2022-08-18T11:04:00;21.60;99.90
27848;DHT22;15212;48.830;8.730;2022-08-18T11:06:38;21.60;99.90
27848;DHT22;15212;48.830;8.730;2022-08-18T11:09:09;21.60;99.90
27848;DHT22;15212;48.830;8.730;2022-08-18T11:11:41;21.60;99.90
27848;DHT22;15212;48.830;8.730;2022-08-18T11:14:18;21.60;99.90
27848;DHT22;15212;48.830;8.730;2022-08-18T11:19:54;21.90;99.90
27848;DHT22;15212;48.830;8.730;2022-08-18T11:22:31;22.10;99.90
27848;DHT22;15212;48.830;8.730;2022-08-18T11:25:05;22.20;99.90
27848;DHT22;15212;48.830;8.730;2022-08-18T11:27:48;22.30;99.90
27848;DHT22;15212;48.830;8.730;2022-08-18T11:30:17;22.40;99.90
27848;DHT22;15212;48.830;8.730;2022-08-18T11:32:47;22.60;99.90
27848;DHT22;15212;48.830;8.730;2022-08-18T11:35:19;22.70;99.90
27848;DHT22;15212;48.830;8.730;2022-08-18T11:38:00;22.70;99.90
27848;DHT22;15212;48.830;8.730;2022-08-18T11:40:36;22.80;99.90
27848;DHT22;15212;48.830;8.730;2022-08-18T11:43:10;23.00;99.90
27848;DHT22;15212;48.830;8.730;2022-08-18T11:53:58;23.40;99.90
27848;DHT22;15212;48.830;8.730;2022-08-18T11:56:33;23.50;99.90
27848;DHT22;15212;48.830;8.730;2022-08-18T11:59:29;23.70;99.90
27848;DHT22;15212;48.830;8.730;2022-08-18T12:04:27;23.80;99.90
27848;DHT22;15212;48.830;8.730;2022-08-18T12:06:59;23.90;99.90
27848;DHT22;15212;48.830;8.730;2022-08-18T12:09:42;24.00;99.90
27848;DHT22;15212;48.830;8.730;2022-08-18T12:12:23;24.00;99.90
27848;DHT22;15212;48.830;8.730;2022-08-18T12:15:05;24.00;99.90
27848;DHT22;15212;48.830;8.730;2022-08-18T12:17:43;23.80;99.90
27848;DHT22;15212;48.830;8.730;2022-08-18T12:20:13;23.90;99.90
27848;DHT22;15212;48.830;8.730;2022-08-18T12:22:44;24.00;99.90
27848;DHT22;15212;48.830;8.730;2022-08-18T12:25:17;24.00;99.90
27848;DHT22;15212;48.830;8.730;2022-08-18T12:27:46;24.00;99.90
27848;DHT22;15212;48.830;8.730;2022-08-18T12:30:14;23.90;99.90
27848;DHT22;15212;48.830;8.730;2022-08-18T12:32:44;24.00;99.90
27848;DHT22;15212;48.830;8.730;2022-08-18T12:35:12;24.10;99.90
27848;DHT22;15212;48.830;8.730;2022-08-18T12:37:43;24.10;99.90
27848;DHT22;15212;48.830;8.730;2022-08-18T12:40:12;24.30;99.90
27848;DHT22;15212;48.830;8.730;2022-08-18T12:42:40;24.30;99.90
27848;DHT22;15212;48.830;8.730;2022-08-18T12:45:10;24.30;99.90
27848;DHT22;15212;48.830;8.730;2022-08-18T12:47:40;24.40;99.90
27848;DHT22;15212;48.830;8.730;2022-08-18T12:50:08;24.50;99.90
27848;DHT22;15212;48.830;8.730;2022-08-18T12:52:37;24.60;99.90
27848;DHT22;15212;48.830;8.730;2022-08-18T12:55:07;24.60;99.90
27848;DHT22;15212;48.830;8.730;2022-08-18T12:57:36;24.70;99.90
27848;DHT22;15212;48.830;8.730;2022-08-18T13:00:05;24.80;99.90
27848;DHT22;15212;48.830;8.730;2022-08-18T13:02:34;24.80;99.90
27848;DHT22;15212;48.830;8.730;2022-08-18T13:05:03;24.80;99.90
27848;DHT22;15212;48.830;8.730;2022-08-18T13:07:32;24.80;99.90
27848;DHT22;15212;48.830;8.730;2022-08-18T13:10:00;24.80;99.90
27848;DHT22;15212;48.830;8.730;2022-08-18T13:12:29;24.80;99.90
27848;DHT22;15212;48.830;8.730;2022-08-18T13:14:57;24.80;99.90
27848;DHT22;15212;48.830;8.730;2022-08-18T13:17:25;24.80;99.90
27848;DHT22;15212;48.830;8.730;2022-08-18T13:19:54;24.80;99.90
27848;DHT22;15212;48.830;8.730;2022-08-18T13:22:22;24.80;99.90
27848;DHT22;15212;48.830;8.730;2022-08-18T13:24:51;24.80;99.90
27848;DHT22;15212;48.830;8.730;2022-08-18T13:27:19;24.90;99.90
27848;DHT22;15212;48.830;8.730;2022-08-18T13:29:48;24.90;99.90
27848;DHT22;15212;48.830;8.730;2022-08-18T13:32:16;24.90;99.90
27848;DHT22;15212;48.830;8.730;2022-08-18T13:34:45;24.80;99.90
27848;DHT22;15212;48.830;8.730;2022-08-18T13:37:13;24.80;99.90
27848;DHT22;15212;48.830;8.730;2022-08-18T13:39:41;24.90;99.90
27848;DHT22;15212;48.830;8.730;2022-08-18T13:42:10;24.90;99.90
27848;DHT22;15212;48.830;8.730;2022-08-18T13:44:38;24.80;99.90
27848;DHT22;15212;48.830;8.730;2022-08-18T13:47:07;24.80;99.90
27848;DHT22;15212;48.830;8.730;2022-08-18T13:49:36;24.70;99.90
27848;DHT22;15212;48.830;8.730;2022-08-18T13:52:05;24.60;99.90
27848;DHT22;15212;48.830;8.730;2022-08-18T13:54:33;24.50;99.90
27848;DHT22;15212;48.830;8.730;2022-08-18T13:57:03;24.40;99.90
27848;DHT22;15212;48.830;8.730;2022-08-18T13:59:32;24.40;99.90
27848;DHT22;15212;48.830;8.730;2022-08-18T14:02:02;24.40;99.90
27848;DHT22;15212;48.830;8.730;2022-08-18T14:04:33;24.40;99.90
27848;DHT22;15212;48.830;8.730;2022-08-18T14:07:05;24.50;99.90
27848;DHT22;15212;48.830;8.730;2022-08-18T14:09:35;24.50;99.90
27848;DHT22;15212;48.830;8.730;2022-08-18T14:12:08;24.60;99.90
27848;DHT22;15212;48.830;8.730;2022-08-18T14:14:44;24.70;99.90
27848;DHT22;15212;48.830;8.730;2022-08-18T14:17:13;24.80;99.90
27848;DHT22;15212;48.830;8.730;2022-08-18T14:19:41;24.90;99.90
27848;DHT22;15212;48.830;8.730;2022-08-18T14:22:27;24.90;99.90
27848;DHT22;15212;48.830;8.730;2022-08-18T14:25:14;24.80;99.90
27848;DHT22;15212;48.830;8.730;2022-08-18T14:28:00;24.80;99.90
27848;DHT22;15212;48.830;8.730;2022-08-18T14:30:30;24.80;99.90
27848;DHT22;15212;48.830;8.730;2022-08-18T14:32:58;24.80;99.90
27848;DHT22;15212;48.830;8.730;2022-08-18T14:35:27;24.90;99.90
27848;DHT22;15212;48.830;8.730;2022-08-18T14:37:55;24.80;99.90
27848;DHT22;15212;48.830;8.730;2022-08-18T14:40:24;24.90;99.90
27848;DHT22;15212;48.830;8.730;2022-08-18T14:42:52;24.90;99.90
27848;DHT22;15212;48.830;8.730;2022-08-18T14:45:23;24.80;99.90
27848;DHT22;15212;48.830;8.730;2022-08-18T14:47:54;24.60;99.90
27848;DHT22;15212;48.830;8.730;2022-08-18T14:50:23;24.40;99.90
27848;DHT22;15212;48.830;8.730;2022-08-18T14:52:52;24.40;99.90
27848;DHT22;15212;48.830;8.730;2022-08-18T14:55:20;24.40;99.90
27848;DHT22;15212;48.830;8.730;2022-08-18T14:57:49;24.50;99.90
27848;DHT22;15212;48.830;8.730;2022-08-18T15:00:18;24.40;99.90
27848;DHT22;15212;48.830;8.730;2022-08-18T15:02:47;24.40;99.90
27848;DHT22;15212;48.830;8.730;2022-08-18T15:05:16;24.40;99.90
27848;DHT22;15212;48.830;8.730;2022-08-18T15:07:44;24.40;99.90
27848;DHT22;15212;48.830;8.730;2022-08-18T15:10:14;24.40;99.90
27848;DHT22;15212;48.830;8.730;2022-08-18T15:12:43;24.40;99.90
27848;DHT22;15212;48.830;8.730;2022-08-18T15:15:12;24.50;99.90
27848;DHT22;15212;48.830;8.730;2022-08-18T15:17:40;24.50;99.90
27848;DHT22;15212;48.830;8.730;2022-08-18T15:20:10;24.60;99.90
27848;DHT22;15212;48.830;8.730;2022-08-18T15:22:41;24.60;99.90
27848;DHT22;15212;48.830;8.730;2022-08-18T15:25:28;24.50;99.90
27848;DHT22;15212;48.830;8.730;2022-08-18T15:28:16;24.60;99.90
27848;DHT22;15212;48.830;8.730;2022-08-18T15:30:48;24.50;99.90
27848;DHT22;15212;48.830;8.730;2022-08-18T15:33:18;24.40;99.90
27848;DHT22;15212;48.830;8.730;2022-08-18T15:35:49;24.40;99.90
27848;DHT22;15212;48.830;8.730;2022-08-18T15:38:19;24.50;99.90
27848;DHT22;15212;48.830;8.730;2022-08-18T15:40:58;24.50;99.90
27848;DHT22;15212;48.830;8.730;2022-08-18T15:43:30;24.60;99.90
27848;DHT22;15212;48.830;8.730;2022-08-18T15:46:00;24.60;99.90
27848;DHT22;15212;48.830;8.730;2022-08-18T15:48:28;24.60;99.90
27848;DHT22;15212;48.830;8.730;2022-08-18T15:50:56;24.50;99.90
27848;DHT22;15212;48.830;8.730;2022-08-18T15:53:26;24.40;99.90
27848;DHT22;15212;48.830;8.730;2022-08-18T15:55:54;24.30;99.90
27848;DHT22;15212;48.830;8.730;2022-08-18T15:58:22;24.20;99.90
27848;DHT22;15212;48.830;8.730;2022-08-18T16:00:51;24.00;99.90
27848;DHT22;15212;48.830;8.730;2022-08-18T16:03:19;24.00;99.90
27848;DHT22;15212;48.830;8.730;2022-08-18T16:05:50;23.90;99.90
27848;DHT22;15212;48.830;8.730;2022-08-18T16:08:21;23.90;99.90
27848;DHT22;15212;48.830;8.730;2022-08-18T16:10:52;23.80;99.90
27848;DHT22;15212;48.830;8.730;2022-08-18T16:13:21;23.80;99.90
27848;DHT22;15212;48.830;8.730;2022-08-18T16:15:51;23.70;99.90
27848;DHT22;15212;48.830;8.730;2022-08-18T16:18:20;23.60;99.90
27848;DHT22;15212;48.830;8.730;2022-08-18T16:20:48;23.60;99.90
27848;DHT22;15212;48.830;8.730;2022-08-18T16:23:17;23.50;99.90
27848;DHT22;15212;48.830;8.730;2022-08-18T16:25:45;23.40;99.90
27848;DHT22;15212;48.830;8.730;2022-08-18T16:28:14;23.40;99.90
27848;DHT22;15212;48.830;8.730;2022-08-18T16:30:42;23.40;99.90
27848;DHT22;15212;48.830;8.730;2022-08-18T16:33:10;23.30;99.90
27848;DHT22;15212;48.830;8.730;2022-08-18T16:35:38;23.10;99.90
27848;DHT22;15212;48.830;8.730;2022-08-18T16:38:09;23.10;99.90
27848;DHT22;15212;48.830;8.730;2022-08-18T16:40:37;23.00;99.90
27848;DHT22;15212;48.830;8.730;2022-08-18T16:43:06;22.90;99.90
27848;DHT22;15212;48.830;8.730;2022-08-18T16:45:36;22.90;99.90
27848;DHT22;15212;48.830;8.730;2022-08-18T16:48:05;22.80;99.90
27848;DHT22;15212;48.830;8.730;2022-08-18T16:50:36;22.70;99.90
27848;DHT22;15212;48.830;8.730;2022-08-18T16:53:06;22.60;99.90
27848;DHT22;15212;48.830;8.730;2022-08-18T16:55:35;22.50;99.90
27848;DHT22;15212;48.830;8.730;2022-08-18T16:58:04;22.40;99.90
27848;DHT22;15212;48.830;8.730;2022-08-18T17:00:50;22.30;99.90
27848;DHT22;15212;48.830;8.730;2022-08-18T17:03:38;22.20;99.90
27848;DHT22;15212;48.830;8.730;2022-08-18T17:06:24;22.10;99.90
27848;DHT22;15212;48.830;8.730;2022-08-18T17:08:55;22.00;99.90
27848;DHT22;15212;48.830;8.730;2022-08-18T17:11:25;21.90;99.90
27848;DHT22;15212;48.830;8.730;2022-08-18T17:13:57;21.80;99.90
27848;DHT22;15212;48.830;8.730;2022-08-18T17:16:27;21.70;99.90
27848;DHT22;15212;48.830;8.730;2022-08-18T17:18:56;21.60;99.90
27848;DHT22;15212;48.830;8.730;2022-08-18T17:21:28;21.60;99.90
27848;DHT22;15212;48.830;8.730;2022-08-18T17:23:59;21.50;99.90
27848;DHT22;15212;48.830;8.730;2022-08-18T17:29:19;21.50;99.90
27848;DHT22;15212;48.830;8.730;2022-08-18T17:31:59;21.50;99.90
27848;DHT22;15212;48.830;8.730;2022-08-18T17:34:33;21.40;99.90
27848;DHT22;15212;48.830;8.730;2022-08-18T17:37:04;21.40;99.90
27848;DHT22;15212;48.830;8.730;2022-08-18T17:39:37;21.30;99.90
27848;DHT22;15212;48.830;8.730;2022-08-18T17:42:19;21.30;99.90
27848;DHT22;15212;48.830;8.730;2022-08-18T17:44:56;21.30;99.90
27848;DHT22;15212;48.830;8.730;2022-08-18T17:47:33;21.30;99.90
27848;DHT22;15212;48.830;8.730;2022-08-18T17:50:07;21.20;99.90
27848;DHT22;15212;48.830;8.730;2022-08-18T17:53:04;21.20;99.90
27848;DHT22;15212;48.830;8.730;2022-08-18T17:55:43;21.20;99.90
27848;DHT22;15212;48.830;8.730;2022-08-18T18:00:50;21.10;99.90
27848;DHT22;15212;48.830;8.730;2022-08-18T18:03:18;21.00;99.90
27848;DHT22;15212;48.830;8.730;2022-08-18T18:05:58;21.00;99.90
27848;DHT22;15212;48.830;8.730;2022-08-18T18:11:20;20.90;99.90
27848;DHT22;15212;48.830;8.730;2022-08-18T18:13:51;20.90;99.90